Paradise, Missouri
Current Conditions -  °F | °C
As of 4:53 PM on Saturday 25 Oct 2014 (Local Time) from KMCI Reporting Station
Clear Clear  
Wind Chill: 78°   Ceiling: Unl
Heat Index: 79°   Visibility: 10mi
Dew Point: 57°   Wind: 6mph
Humidity: 48%   Direction: 150°SSE
Pressure: 30.02"   Gusts: NA
Location:  39.3944°N, 94.5382°W
Report Text: KMCI 252153Z 15005KT 10SM CLR 26/14 A3002 RMK AO2 SLP158 T02560139
Loading
Personal Weather Stations






























Interactive Weather Map New forecast layout! Learn more

10-Day Weather Forecast

Advertisements
Track Severe Weather on mobile